createdAt,value
2022-08-09T00:01:05.589Z,77463.38
2022-08-09T00:04:05.672Z,77463.38
2022-08-09T00:06:23.731Z,77459.38
2022-08-09T00:08:51.923Z,77455.38
2022-08-09T00:11:24.674Z,77459.38
2022-08-09T00:13:51.913Z,77457.38
2022-08-09T00:16:26.032Z,77459.38
2022-08-09T00:19:09.501Z,77457.38
2022-08-09T00:21:37.680Z,77459.38
2022-08-09T00:24:10.416Z,77461.38
2022-08-09T00:26:41.320Z,77463.38
2022-08-09T00:29:12.597Z,77463.38
2022-08-09T00:31:59.711Z,77459.38
2022-08-09T00:34:27.666Z,77461.38
2022-08-09T00:36:59.097Z,77463.38
2022-08-09T00:40:13.225Z,77465.38
2022-08-09T00:44:14.338Z,77467.38
2022-08-09T00:44:58.338Z,77459.38
2022-08-09T00:47:25.260Z,77459.38
2022-08-09T00:49:54.469Z,77469.38
2022-08-09T00:52:28.026Z,77467.38
2022-08-09T00:54:57.867Z,77469.38
2022-08-09T00:57:35.045Z,77467.38
2022-08-09T01:00:20.433Z,77467.38
2022-08-09T01:02:50.046Z,77465.38
2022-08-09T01:05:22.041Z,77465.38
2022-08-09T01:08:00.068Z,77467.38
2022-08-09T01:10:28.928Z,77467.38
2022-08-09T01:13:04.298Z,77463.38
2022-08-09T01:15:40.922Z,77467.38
2022-08-09T01:18:14.217Z,77463.38
2022-08-09T01:20:47.186Z,77463.38
2022-08-09T01:24:03.222Z,77461.38
2022-08-09T01:26:12.255Z,77471.38
2022-08-09T01:28:44.014Z,77467.38
2022-08-09T01:31:23.350Z,77471.38
2022-08-09T01:34:03.652Z,77475.38
2022-08-09T01:36:31.667Z,77473.38
2022-08-09T01:38:59.619Z,77475.38
2022-08-09T01:41:28.291Z,77475.38
2022-08-09T01:43:55.855Z,77477.38
2022-08-09T01:46:27.252Z,77473.38
2022-08-09T01:48:55.964Z,77479.38
2022-08-09T01:51:23.553Z,77475.38
2022-08-09T01:53:54.603Z,77479.38
2022-08-09T01:56:25.139Z,77473.38
2022-08-09T01:58:52.667Z,77479.38
2022-08-09T02:01:20.318Z,77473.38
2022-08-09T02:03:58.279Z,77479.38
2022-08-09T02:06:58.393Z,77479.38
2022-08-09T02:09:26.163Z,77479.38
2022-08-09T02:12:09.836Z,77473.38
2022-08-09T02:14:42.056Z,77471.38
2022-08-09T02:17:29.414Z,77467.38
2022-08-09T02:19:55.985Z,77467.38
2022-08-09T02:23:00.208Z,77461.38
2022-08-09T02:25:28.919Z,77471.38
2022-08-09T02:28:09.714Z,77467.38
2022-08-09T02:30:41.465Z,77467.38
2022-08-09T02:33:14.584Z,77467.38
2022-08-09T02:36:03.549Z,77467.38
2022-08-09T02:38:32.197Z,77461.38
2022-08-09T02:41:11.431Z,77459.38
2022-08-09T02:43:42.292Z,77463.38
2022-08-09T02:46:21.797Z,77461.38
2022-08-09T02:48:51.126Z,77463.38
2022-08-09T02:51:19.783Z,77461.38
2022-08-09T02:53:52.810Z,77463.38
2022-08-09T02:56:24.084Z,77461.38
2022-08-09T02:58:54.631Z,77463.38
2022-08-09T03:01:29.674Z,77465.38
2022-08-09T03:04:17.714Z,77459.38
2022-08-09T03:06:46.068Z,77459.38
2022-08-09T03:09:16.321Z,77465.38
2022-08-09T03:12:06.054Z,77467.38
2022-08-09T03:14:32.037Z,77471.38
2022-08-09T03:16:59.807Z,77465.38
2022-08-09T03:19:58.309Z,77467.38
2022-08-09T03:22:24.951Z,77467.38
2022-08-09T03:25:05.724Z,77467.38
2022-08-09T03:27:45.379Z,77467.38
2022-08-09T03:30:13.117Z,77475.38
2022-08-09T03:32:41.584Z,77471.38
2022-08-09T03:35:14.973Z,77475.38
2022-08-09T03:37:56.541Z,77475.38
2022-08-09T03:40:24.805Z,77479.38
2022-08-09T03:42:51.577Z,77481.38
2022-08-09T03:45:18.026Z,77487.41
2022-08-09T03:48:04.536Z,77481.38
2022-08-09T03:50:33.127Z,77481.38
2022-08-09T03:53:03.187Z,77483.38
2022-08-09T03:55:30.175Z,77487.41
2022-08-09T03:58:09.891Z,77491.41
2022-08-09T04:00:44.296Z,77495.41
2022-08-09T04:03:11.727Z,77499.41
2022-08-09T04:05:42.282Z,77495.41
2022-08-09T04:08:11.443Z,77495.41
2022-08-09T04:10:37.866Z,77495.41
2022-08-09T04:13:11.537Z,77501.41
2022-08-09T04:16:18.318Z,77505.41
2022-08-09T04:18:25.305Z,77507.41
2022-08-09T04:20:51.773Z,77507.41
2022-08-09T04:23:24.655Z,77503.41
2022-08-09T04:25:52.962Z,77511.41
2022-08-09T04:28:34.003Z,77511.41
2022-08-09T04:31:05.793Z,77511.41
2022-08-09T04:33:47.229Z,77515.41
2022-08-09T04:36:19.747Z,77515.41
2022-08-09T04:38:46.403Z,77519.44
2022-08-09T04:41:13.981Z,77521.44
2022-08-09T04:43:53.598Z,77515.41
2022-08-09T04:46:57.195Z,77519.44
2022-08-09T04:49:15.040Z,77519.44
2022-08-09T04:51:41.558Z,77519.44
2022-08-09T04:54:08.038Z,77523.44
2022-08-09T04:56:35.625Z,77527.44
2022-08-09T04:59:06.150Z,77533.44
2022-08-09T05:01:39.418Z,77531.44
2022-08-09T05:04:05.839Z,77529.44
2022-08-09T05:06:35.732Z,77535.44
2022-08-09T05:09:02.380Z,77531.44
2022-08-09T05:11:32.495Z,77533.44
2022-08-09T05:14:02.033Z,77535.44
2022-08-09T05:16:32.735Z,77531.44
2022-08-09T05:19:00.520Z,77539.44
2022-08-09T05:21:36.428Z,77535.44
2022-08-09T05:24:13.295Z,77539.44
2022-08-09T05:26:45.986Z,77539.44
2022-08-09T05:29:21.983Z,77547.44
2022-08-09T05:31:57.585Z,77543.44
2022-08-09T05:34:31.128Z,77545.44
2022-08-09T05:37:06.129Z,77545.44
2022-08-09T05:39:36.472Z,77547.44
2022-08-09T05:42:18.043Z,77547.44
2022-08-09T05:44:50.951Z,77547.44
2022-08-09T05:47:18.432Z,77551.47
2022-08-09T05:50:30.773Z,77551.47
2022-08-09T05:52:31.770Z,77543.44
2022-08-09T05:55:02.851Z,77547.44
2022-08-09T05:57:50.398Z,77545.44
2022-08-09T06:00:20.176Z,77543.44
2022-08-09T06:02:47.009Z,77539.44
2022-08-09T06:05:13.595Z,77539.44
2022-08-09T06:07:40.055Z,77537.44
2022-08-09T06:10:09.495Z,77543.44
2022-08-09T06:12:43.131Z,77543.44
2022-08-09T06:15:09.989Z,77547.44
2022-08-09T06:17:39.763Z,77545.44
2022-08-09T06:20:07.295Z,77551.47
2022-08-09T06:22:34.548Z,77551.47
2022-08-09T06:25:01.239Z,77551.47
2022-08-09T06:27:43.036Z,77551.47
2022-08-09T06:30:16.243Z,77553.47
2022-08-09T06:32:59.072Z,77557.47
2022-08-09T06:35:35.816Z,77559.47
2022-08-09T06:38:15.976Z,77557.47
2022-08-09T06:40:42.687Z,77561.47
2022-08-09T06:43:10.712Z,77559.47
2022-08-09T06:46:06.519Z,77563.47
2022-08-09T06:48:30.759Z,77563.47
2022-08-09T06:50:57.614Z,77561.47
2022-08-09T06:53:24.741Z,77559.47
2022-08-09T06:55:51.123Z,77563.47
2022-08-09T06:58:40.834Z,77559.47
2022-08-09T07:01:04.113Z,77567.47
2022-08-09T07:03:30.889Z,77563.47
2022-08-09T07:06:03.897Z,77567.47
2022-08-09T07:08:31.584Z,77567.47
2022-08-09T07:10:58.047Z,77563.47
2022-08-09T07:13:27.837Z,77569.47
2022-08-09T07:16:41.403Z,77563.47
2022-08-09T07:18:41.955Z,77565.47
2022-08-09T07:21:09.785Z,77575.47
2022-08-09T07:23:46.616Z,77567.47
2022-08-09T07:26:23.198Z,77573.47
2022-08-09T07:29:08.410Z,77575.47
2022-08-09T07:31:38.050Z,77571.47
2022-08-09T07:34:05.104Z,77575.47
2022-08-09T07:36:32.400Z,77571.47
2022-08-09T07:39:00.804Z,77571.47
2022-08-09T07:41:32.947Z,77575.47
2022-08-09T07:43:59.867Z,77571.47
2022-08-09T07:46:27.718Z,77577.47
2022-08-09T07:48:58.995Z,77575.47
2022-08-09T07:52:05.618Z,77575.47
2022-08-09T07:54:12.815Z,77573.47
2022-08-09T07:56:55.556Z,77571.47
2022-08-09T07:59:34.531Z,77575.47
2022-08-09T08:02:08.984Z,77579.50
2022-08-09T08:04:36.654Z,77579.50
2022-08-09T08:07:14.954Z,77579.50
2022-08-09T08:10:05.746Z,77577.47
2022-08-09T08:12:35.279Z,77575.47
2022-08-09T08:15:04.564Z,77579.50
2022-08-09T08:17:54.197Z,77579.50
2022-08-09T08:20:19.527Z,77579.50
2022-08-09T08:22:56.119Z,77581.50
2022-08-09T08:25:39.962Z,77575.47
2022-08-09T08:28:10.575Z,77579.50
2022-08-09T08:30:41.447Z,77579.50
2022-08-09T08:33:11.941Z,77573.47
2022-08-09T08:35:59.708Z,77571.47
2022-08-09T08:38:27.894Z,77569.47
2022-08-09T08:40:55.639Z,77569.47
2022-08-09T08:43:23.756Z,77575.47
2022-08-09T08:46:09.878Z,77575.47
2022-08-09T08:48:51.640Z,77573.47
2022-08-09T08:51:18.619Z,77579.50
2022-08-09T08:54:03.120Z,77575.47
2022-08-09T08:56:32.081Z,77575.47
2022-08-09T08:59:00.634Z,77577.47
2022-08-09T09:01:45.001Z,77577.47
2022-08-09T09:04:26.684Z,77575.47
2022-08-09T09:06:55.699Z,77579.50
2022-08-09T09:09:58.642Z,77581.50
2022-08-09T09:12:16.764Z,77581.50
2022-08-09T09:14:44.331Z,77579.50
2022-08-09T09:17:11.178Z,77579.50
2022-08-09T09:19:43.546Z,77587.50
2022-08-09T09:22:16.107Z,77583.50
2022-08-09T09:25:27.752Z,77579.50
2022-08-09T09:28:04.551Z,77579.50
2022-08-09T09:30:44.049Z,77577.47
2022-08-09T09:33:17.449Z,77579.50
2022-08-09T09:35:53.151Z,77575.47
2022-08-09T09:38:48.131Z,77579.50
2022-08-09T09:41:24.148Z,77575.47
2022-08-09T09:44:11.642Z,77567.47
2022-08-09T09:46:42.129Z,77571.47
2022-08-09T09:49:11.140Z,77575.47
2022-08-09T09:51:40.441Z,77575.47
2022-08-09T09:54:21.183Z,77571.47
2022-08-09T09:58:00.338Z,77569.47
2022-08-09T09:59:36.114Z,77567.47
2022-08-09T10:02:02.569Z,77571.47
2022-08-09T10:04:30.958Z,77571.47
2022-08-09T10:06:58.025Z,77565.47
2022-08-09T10:09:25.254Z,77565.47
2022-08-09T10:12:14.762Z,77567.47
2022-08-09T10:14:48.835Z,77567.47
2022-08-09T10:17:39.763Z,77567.47
2022-08-09T10:20:15.025Z,77565.47
2022-08-09T10:22:42.002Z,77569.47
2022-08-09T10:25:11.881Z,77563.47
2022-08-09T10:27:54.516Z,77565.47
2022-08-09T10:34:04.980Z,77559.47
2022-08-09T10:35:57.402Z,77553.47
2022-08-09T10:38:43.175Z,77553.47
2022-08-09T10:41:15.464Z,77551.47
2022-08-09T10:43:48.598Z,77539.44
2022-08-09T10:46:54.999Z,77539.44
2022-08-09T10:49:25.203Z,77539.44
2022-08-09T10:52:36.644Z,77537.44
2022-08-09T10:55:23.959Z,77537.44
2022-08-09T10:57:51.953Z,77535.44
2022-08-09T11:00:33.885Z,77533.44
2022-08-09T11:03:14.103Z,77535.44
2022-08-09T11:06:07.597Z,77531.44
2022-08-09T11:08:47.482Z,77533.44
2022-08-09T11:11:17.995Z,77527.44
2022-08-09T11:13:50.763Z,77531.44
2022-08-09T11:16:35.591Z,77531.44
2022-08-09T11:19:09.319Z,77529.44
2022-08-09T11:21:55.131Z,77527.44
2022-08-09T11:24:24.143Z,77525.44
2022-08-09T11:26:54.688Z,77525.44
2022-08-09T11:30:05.074Z,77521.44
2022-08-09T11:32:39.882Z,77523.44
2022-08-09T11:35:14.013Z,77519.44
2022-08-09T11:37:43.283Z,77519.44
2022-08-09T11:40:17.909Z,77523.44
2022-08-09T11:42:48.940Z,77513.41
2022-08-09T11:45:43.117Z,77499.41
2022-08-09T11:48:26.445Z,77479.38
2022-08-09T11:51:38.236Z,77477.38
2022-08-09T11:54:13.483Z,77463.38
2022-08-09T11:56:42.325Z,77471.38
2022-08-09T11:59:24.289Z,77463.38
2022-08-09T12:02:17.346Z,77467.38
2022-08-09T12:04:43.801Z,77471.38
2022-08-09T12:07:11.051Z,77471.38
2022-08-09T12:09:50.718Z,77467.38
2022-08-09T12:12:20.183Z,77467.38
2022-08-09T12:15:08.009Z,77475.38
2022-08-09T12:17:42.298Z,77469.38
2022-08-09T12:20:16.757Z,77479.38
2022-08-09T12:22:50.323Z,77479.38
2022-08-09T12:25:17.723Z,77485.41
2022-08-09T12:29:10.281Z,77485.41
2022-08-09T12:30:57.737Z,77489.41
2022-08-09T12:33:24.688Z,77483.38
2022-08-09T12:36:05.681Z,77479.38
2022-08-09T12:38:52.898Z,77483.38
2022-08-09T12:41:30.954Z,77479.38
2022-08-09T12:44:05.213Z,77479.38
2022-08-09T12:46:34.602Z,77479.38
2022-08-09T12:49:03.420Z,77479.38
2022-08-09T12:51:52.538Z,77481.38
2022-08-09T12:54:16.232Z,77483.38
2022-08-09T12:56:51.025Z,77481.38
2022-08-09T12:59:20.467Z,77481.38
2022-08-09T13:02:09.657Z,77475.38
2022-08-09T13:04:38.523Z,77471.38
2022-08-09T13:07:16.573Z,77473.38
2022-08-09T13:09:52.861Z,77467.38
2022-08-09T13:12:26.559Z,77469.38
2022-08-09T13:15:03.088Z,77463.38
2022-08-09T13:18:02.576Z,77463.38
2022-08-09T13:20:23.251Z,77459.38
2022-08-09T13:23:01.253Z,77459.38
2022-08-09T13:25:43.027Z,77459.38
2022-08-09T13:28:34.474Z,77461.38
2022-08-09T13:32:14.839Z,77463.38
2022-08-09T13:33:53.263Z,77469.38
2022-08-09T13:36:24.639Z,77469.38
2022-08-09T13:41:51.303Z,77461.38
2022-08-09T13:42:01.383Z,77459.38
2022-08-09T13:44:28.418Z,77459.38
2022-08-09T13:47:26.520Z,77459.38
2022-08-09T13:49:56.158Z,77471.38
2022-08-09T13:52:24.569Z,77463.38
2022-08-09T13:54:59.333Z,77465.38
2022-08-09T13:57:37.498Z,77467.38
2022-08-09T14:00:07.966Z,77471.38
2022-08-09T14:02:42.043Z,77463.38
2022-08-09T14:05:09.143Z,77463.38
2022-08-09T14:07:41.963Z,77469.38
2022-08-09T14:10:17.323Z,77463.38
2022-08-09T14:12:55.466Z,77461.38
2022-08-09T14:16:10.628Z,77461.38
2022-08-09T14:18:19.821Z,77463.38
2022-08-09T14:20:54.397Z,77463.38
2022-08-09T14:23:39.826Z,77459.38
2022-08-09T14:26:07.331Z,77461.38
2022-08-09T14:28:37.799Z,77467.38
2022-08-09T14:31:04.258Z,77459.38
2022-08-09T14:33:30.790Z,77467.38
2022-08-09T14:36:20.281Z,77465.38
2022-08-09T14:38:47.541Z,77463.38
2022-08-09T14:41:40.342Z,77461.38
2022-08-09T14:44:06.123Z,77459.38
2022-08-09T14:46:58.035Z,77471.38
2022-08-09T14:49:23.644Z,77459.38
2022-08-09T14:51:50.246Z,77463.38
2022-08-09T14:54:16.887Z,77467.38
2022-08-09T14:56:57.510Z,77469.38
2022-08-09T14:59:25.011Z,77467.38
2022-08-09T15:01:53.454Z,77467.38
2022-08-09T15:04:19.964Z,77467.38
2022-08-09T15:06:49.935Z,77467.38
2022-08-09T15:09:30.350Z,77461.38
2022-08-09T15:12:05.111Z,77469.38
2022-08-09T15:14:34.723Z,77463.38
2022-08-09T15:17:07.680Z,77467.38
2022-08-09T15:19:36.393Z,77467.38
2022-08-09T15:22:03.345Z,77471.38
2022-08-09T15:24:29.911Z,77467.38
2022-08-09T15:26:56.407Z,77467.38
2022-08-09T15:30:58.947Z,77467.38
2022-08-09T15:32:29.626Z,77461.38
2022-08-09T15:35:00.243Z,77467.38
2022-08-09T15:37:37.715Z,77463.38
2022-08-09T15:40:22.805Z,77463.38
2022-08-09T15:42:52.427Z,77459.38
2022-08-09T15:45:21.707Z,77461.38
2022-08-09T15:48:05.039Z,77463.38
2022-08-09T15:50:34.360Z,77463.38
2022-08-09T15:53:06.769Z,77463.38
2022-08-09T15:55:53.934Z,77457.38
2022-08-09T15:58:27.010Z,77459.38
2022-08-09T16:00:53.944Z,77459.38
2022-08-09T16:03:29.674Z,77461.38
2022-08-09T16:06:05.223Z,77459.38
2022-08-09T16:08:31.729Z,77463.38
2022-08-09T16:11:02.395Z,77461.38
2022-08-09T16:14:06.104Z,77457.38
2022-08-09T16:16:18.582Z,77453.34
2022-08-09T16:18:45.876Z,77459.38
2022-08-09T16:21:17.533Z,77455.38
2022-08-09T16:24:01.714Z,77459.38
2022-08-09T16:26:34.729Z,77459.38
2022-08-09T16:29:10.696Z,77459.38
2022-08-09T16:32:17.695Z,77455.38
2022-08-09T16:34:25.068Z,77455.38
2022-08-09T16:36:51.571Z,77453.34
2022-08-09T16:39:17.951Z,77455.38
2022-08-09T16:42:04.239Z,77455.38
2022-08-09T16:44:31.646Z,77461.38
2022-08-09T16:47:04.232Z,77463.38
2022-08-09T16:50:31.064Z,77463.38
2022-08-09T16:52:31.294Z,77463.38
2022-08-09T16:54:58.103Z,77463.38
2022-08-09T16:57:24.506Z,77463.38
2022-08-09T16:59:57.686Z,77467.38
2022-08-09T17:02:25.550Z,77465.38
2022-08-09T17:04:52.718Z,77467.38
2022-08-09T17:08:45.870Z,77467.38
2022-08-09T17:10:07.171Z,77467.38
2022-08-09T17:12:35.350Z,77467.38
2022-08-09T17:15:01.984Z,77465.38
2022-08-09T17:17:51.138Z,77467.38
2022-08-09T17:20:33.243Z,77471.38
2022-08-09T17:23:04.814Z,77467.38
2022-08-09T17:25:31.589Z,77459.38
2022-08-09T17:28:03.887Z,77463.38
2022-08-09T17:30:30.767Z,77459.38
2022-08-09T17:33:04.857Z,77465.38
2022-08-09T17:35:33.351Z,77463.38
2022-08-09T17:38:11.146Z,77465.38
2022-08-09T17:40:41.353Z,77463.38
2022-08-09T17:43:33.191Z,77471.38
2022-08-09T17:46:03.143Z,77467.38
2022-08-09T17:48:31.613Z,77471.38
2022-08-09T17:51:06.459Z,77467.38
2022-08-09T17:53:42.883Z,77475.38
2022-08-09T17:56:10.048Z,77471.38
2022-08-09T17:58:36.446Z,77475.38
2022-08-09T18:01:02.901Z,77471.38
2022-08-09T18:03:30.464Z,77473.38
2022-08-09T18:05:58.345Z,77469.38
2022-08-09T18:08:27.991Z,77467.38
2022-08-09T18:10:55.023Z,77471.38
2022-08-09T18:13:42.962Z,77471.38
2022-08-09T18:16:16.379Z,77471.38
2022-08-09T18:18:49.205Z,77467.38
2022-08-09T18:21:21.450Z,77467.38
2022-08-09T18:24:10.626Z,77471.38
2022-08-09T18:26:37.843Z,77469.38
2022-08-09T18:30:34.899Z,77467.38
2022-08-09T18:31:55.129Z,77475.38
2022-08-09T18:34:23.866Z,77475.38
2022-08-09T18:36:50.718Z,77477.38
2022-08-09T18:39:22.131Z,77491.41
2022-08-09T18:41:52.717Z,77485.41
2022-08-09T18:44:22.917Z,77485.41
2022-08-09T18:47:07.498Z,77493.41
2022-08-09T18:49:41.698Z,77495.41
2022-08-09T18:52:10.660Z,77495.41
2022-08-09T18:54:38.851Z,77499.41
2022-08-09T18:57:06.803Z,77499.41
2022-08-09T18:59:49.030Z,77507.41
2022-08-09T19:02:18.856Z,77503.41
2022-08-09T19:04:48.031Z,77509.41
2022-08-09T19:07:31.877Z,77511.41
2022-08-09T19:10:14.639Z,77515.41
2022-08-09T19:12:45.680Z,77515.41
2022-08-09T19:15:25.635Z,77519.44
2022-08-09T19:17:56.524Z,77519.44
2022-08-09T19:20:25.258Z,77523.44
2022-08-09T19:22:54.432Z,77519.44
2022-08-09T19:25:41.935Z,77523.44
2022-08-09T19:28:08.515Z,77525.44
2022-08-09T19:30:40.327Z,77527.44
2022-08-09T19:33:19.102Z,77531.44
2022-08-09T19:35:58.003Z,77531.44
2022-08-09T19:38:25.404Z,77531.44
2022-08-09T19:40:52.732Z,77535.44
2022-08-09T19:43:58.032Z,77539.44
2022-08-09T19:46:08.539Z,77537.44
2022-08-09T19:49:00.944Z,77541.44
2022-08-09T19:51:27.702Z,77543.44
2022-08-09T19:53:57.877Z,77545.44
2022-08-09T19:56:28.529Z,77545.44
2022-08-09T19:59:40.129Z,77543.44
2022-08-09T20:01:52.487Z,77547.44
2022-08-09T20:04:36.405Z,77551.47
2022-08-09T20:07:06.321Z,77551.47
2022-08-09T20:09:44.467Z,77555.47
2022-08-09T20:12:27.116Z,77559.47
2022-08-09T20:15:01.606Z,77561.47
2022-08-09T20:17:41.506Z,77559.47
2022-08-09T20:20:15.187Z,77559.47
2022-08-09T20:22:44.595Z,77563.47
2022-08-09T20:25:11.172Z,77563.47
2022-08-09T20:27:43.140Z,77567.47
2022-08-09T20:30:10.945Z,77559.47
2022-08-09T20:32:38.980Z,77563.47
2022-08-09T20:35:06.526Z,77567.47
2022-08-09T20:38:18.695Z,77567.47
2022-08-09T20:40:26.795Z,77567.47
2022-08-09T20:42:59.757Z,77567.47
2022-08-09T20:46:00.317Z,77567.47
2022-08-09T20:48:13.816Z,77567.47
2022-08-09T20:50:49.727Z,77565.47
2022-08-09T20:53:35.610Z,77569.47
2022-08-09T20:56:05.399Z,77567.47
2022-08-09T20:58:32.820Z,77567.47
2022-08-09T21:01:14.390Z,77571.47
2022-08-09T21:05:49.678Z,77569.47
2022-08-09T21:06:33.665Z,77571.47
2022-08-09T21:09:01.555Z,77581.50
2022-08-09T21:14:16.829Z,77579.50
2022-08-09T21:16:43.961Z,77581.50
2022-08-09T21:20:17.018Z,77583.50
2022-08-09T21:21:59.125Z,77589.50
2022-08-09T21:24:28.921Z,77593.50
2022-08-09T21:26:59.178Z,77589.50
2022-08-09T21:29:25.554Z,77587.50
2022-08-09T21:31:51.978Z,77591.50
2022-08-09T21:34:28.672Z,77595.50
2022-08-09T21:36:56.564Z,77591.50
2022-08-09T21:39:27.795Z,77599.50
2022-08-09T21:42:10.446Z,77595.50
2022-08-09T21:44:38.017Z,77599.50
2022-08-09T21:47:05.434Z,77597.50
2022-08-09T21:49:40.054Z,77595.50
2022-08-09T21:52:17.110Z,77599.50
2022-08-09T21:54:51.123Z,77603.50
2022-08-09T21:57:39.362Z,77597.50
2022-08-09T22:00:25.288Z,77595.50
2022-08-09T22:02:58.049Z,77603.50
2022-08-09T22:05:35.904Z,77599.50
2022-08-09T22:08:05.669Z,77597.50
2022-08-09T22:10:32.071Z,77599.50
2022-08-09T22:13:00.842Z,77601.50
2022-08-09T22:15:35.004Z,77601.50
2022-08-09T22:18:03.442Z,77601.50
2022-08-09T22:20:31.182Z,77603.50
2022-08-09T22:22:58.154Z,77601.50
2022-08-09T22:26:08.690Z,77599.50
2022-08-09T22:28:11.037Z,77601.50
2022-08-09T22:30:38.851Z,77599.50
2022-08-09T22:33:14.907Z,77601.50
2022-08-09T22:36:02.052Z,77599.50
2022-08-09T22:38:30.028Z,77591.50
2022-08-09T22:40:58.455Z,77593.50
2022-08-09T22:43:50.705Z,77591.50
2022-08-09T22:48:10.616Z,77595.50
2022-08-09T22:49:01.746Z,77591.50
2022-08-09T22:51:38.077Z,77585.50
2022-08-09T22:54:05.250Z,77587.50
2022-08-09T22:56:34.790Z,77587.50
2022-08-09T22:59:05.808Z,77587.50
2022-08-09T23:01:48.100Z,77589.50
2022-08-09T23:04:15.000Z,77591.50
2022-08-09T23:07:01.629Z,77595.50
2022-08-09T23:09:28.091Z,77591.50
2022-08-09T23:11:54.650Z,77595.50
2022-08-09T23:14:37.671Z,77589.50
2022-08-09T23:17:07.410Z,77587.50
2022-08-09T23:20:06.628Z,77593.50
2022-08-09T23:22:20.243Z,77593.50
2022-08-09T23:24:48.598Z,77595.50
2022-08-09T23:27:15.468Z,77599.50
2022-08-09T23:29:42.062Z,77591.50
2022-08-09T23:32:08.569Z,77591.50
2022-08-09T23:34:35.012Z,77595.50
2022-08-09T23:37:01.463Z,77597.50
2022-08-09T23:39:27.987Z,77595.50
2022-08-09T23:41:54.421Z,77595.50
2022-08-09T23:44:20.849Z,77591.50
2022-08-09T23:46:52.906Z,77593.50
2022-08-09T23:49:24.666Z,77591.50
2022-08-09T23:51:52.095Z,77595.50
2022-08-09T23:54:18.873Z,77591.50
2022-08-09T23:56:54.487Z,77593.50
2022-08-09T23:59:22.355Z,77595.50
